Fazenda Rio Grande, Brazil
Current Conditions -  °F | °C
As of 6:00 AM on Friday 24 Oct 2014 (Local Time) from SBCT Reporting Station
Haze Haze  
Wind Chill: 59°   Ceiling: 300
Heat Index: 59°   Visibility: 3mi
Dew Point: 57°   Wind: 6mph
Humidity: 94%   Direction: 100°E
Pressure: 30.06"   Gusts: NA
Location:  25.66°S, 49.31°W
Report Text: SBCT 240800Z 10005KT 5000 BR BKN003 OVC006 15/14 Q1018
Loading
Personal Weather Stations






























Interactive Weather Map
Tropical Storm Tracking
New forecast layout! Learn more

10-Day Weather Forecast

Advertisements
Track Severe Weather on mobile